»·PEaware :: N510CM KEWR-KJFK

N510CM :: KEWR-KJFK

FLIGHT INFORMATION

Flight Status: Arrived
Operator: Privately registered:
United States
More flights under this callsign
Pilot: Gabor H. (24209)
Aircraft: CESSNA 510 CITATION MUSTANG
(C510)
More flights by this aircraft type
Origin: KEWR Newark Intl
United States
Destination: KJFK Kennedy Intl
United States
More flights between these airports :: More routes between these airports
Route: DPK
File this flight plan on PilotEdge
Remarks:
Altitude:
(Current/Filed)
11,000ft
Speed:
(Current/Filed)
340kts
Departed: 01-Dec-22 06:44 AM
Arrived: 01-Dec-22 07:28 AM
Distance/Time
Traveled:
17nm/0:44
Distance/Time
To Go:
Arrived

Flight Plot

Page will automatically refresh every two minutes.

Flight plan parsing failed; only flown route is shown


Map Options




Map Legend


Flown Route
Filed Route
Departure Airport
Arrival Airport
Navaid (VOR, NDB)
Fix

Horizontal Profiles

Position Reports

Time Latitude Longitude Heading Altitude Ground
Speed
01-Dec-22 05:44 40.705542 -74.170098 3 11ft 0kts
01-Dec-22 05:45 40.705542 -74.170098 3 11ft 0kts
01-Dec-22 05:46 40.705542 -74.170098 3 11ft 0kts
01-Dec-22 05:47 40.705542 -74.170098 3 11ft 0kts
01-Dec-22 05:48 40.705542 -74.170098 3 11ft 0kts
01-Dec-22 05:49 40.705542 -74.170098 3 11ft 0kts
01-Dec-22 05:50 40.705542 -74.170098 3 11ft 0kts
01-Dec-22 05:51 40.705542 -74.170098 3 11ft 0kts
01-Dec-22 05:52 40.705542 -74.170098 3 11ft 0kts
01-Dec-22 05:53 40.705542 -74.170098 3 11ft 0kts
01-Dec-22 05:54 40.705542 -74.170098 3 11ft 0kts
01-Dec-22 05:55 40.705542 -74.170098 3 11ft 0kts
01-Dec-22 05:56 40.705542 -74.170098 3 11ft 0kts
01-Dec-22 05:57 40.705542 -74.170098 3 11ft 0kts
01-Dec-22 05:58 40.705542 -74.170098 3 11ft 0kts
01-Dec-22 05:59 40.705542 -74.170098 3 11ft 0kts
01-Dec-22 06:00 40.705542 -74.170098 3 11ft 0kts
01-Dec-22 06:01 40.705542 -74.170098 3 11ft 0kts
01-Dec-22 06:02 40.705542 -74.170098 3 11ft 0kts
01-Dec-22 06:03 40.705542 -74.170098 3 11ft 0kts
01-Dec-22 06:04 40.705542 -74.170098 3 11ft 0kts
01-Dec-22 06:05 40.705542 -74.170098 3 11ft 0kts
01-Dec-22 06:06 40.705542 -74.170098 3 11ft 0kts
01-Dec-22 06:07 40.705542 -74.170098 3 11ft 0kts
01-Dec-22 06:08 40.705542 -74.170098 3 11ft 0kts
01-Dec-22 06:09 40.705542 -74.170098 3 11ft 0kts
01-Dec-22 06:10 40.705542 -74.170098 3 11ft 0kts
01-Dec-22 06:11 40.705542 -74.170098 3 11ft 0kts
01-Dec-22 06:12 40.705542 -74.170098 3 11ft 0kts
01-Dec-22 06:13 40.705542 -74.170098 3 11ft 0kts
01-Dec-22 06:14 40.705542 -74.170098 3 11ft 0kts
01-Dec-22 06:15 40.705542 -74.170098 3 11ft 0kts
01-Dec-22 06:16 40.705542 -74.170098 3 11ft 0kts
01-Dec-22 06:17 40.705542 -74.170098 3 11ft 0kts
01-Dec-22 06:22 40.705542 -74.170098 3 11ft 0kts
01-Dec-22 06:23 40.705542 -74.170098 3 11ft 0kts
01-Dec-22 06:24 40.705542 -74.170098 3 11ft 0kts
01-Dec-22 06:25 40.705542 -74.170098 3 11ft 0kts
01-Dec-22 06:26 40.705542 -74.170098 3 11ft 0kts
01-Dec-22 06:27 40.705542 -74.170098 3 11ft 0kts
01-Dec-22 06:28 40.705542 -74.170098 3 11ft 0kts
01-Dec-22 06:29 40.705542 -74.170098 3 11ft 0kts
01-Dec-22 06:30 40.705542 -74.170098 3 11ft 0kts
01-Dec-22 06:31 40.705542 -74.170098 3 11ft 0kts
01-Dec-22 06:32 40.705542 -74.170098 3 11ft 0kts
01-Dec-22 06:33 40.705685 -74.169693 105 11ft 6kts
01-Dec-22 06:34 40.704549 -74.168138 162 11ft 9kts
01-Dec-22 06:35 40.703155 -74.169119 273 11ft 5kts
01-Dec-22 06:36 40.703450 -74.173693 275 11ft 11kts
01-Dec-22 06:37 40.703574 -74.177371 275 11ft 9kts
01-Dec-22 06:38 40.703686 -74.179078 274 11ft 0kts
01-Dec-22 06:39 40.703695 -74.179215 275 11ft 0kts
01-Dec-22 06:40 40.703695 -74.179216 275 11ft 0kts
01-Dec-22 06:41 40.703703 -74.179647 265 11ft 0kts
01-Dec-22 06:42 40.703163 -74.180246 183 11ft 14kts
01-Dec-22 06:43 40.701601 -74.144971 73 819ft 188kts
01-Dec-22 06:44 40.739230 -74.095021 16 4524ft 202kts
01-Dec-22 06:45 40.766940 -74.150021 277 7724ft 223kts
01-Dec-22 06:46 40.813981 -74.182310 6 10032ft 259kts
01-Dec-22 06:47 40.889156 -74.172033 6 11007ft 290kts
01-Dec-22 06:48 40.968981 -74.161020 6 10999ft 290kts
01-Dec-22 06:49 41.049351 -74.149866 6 10999ft 291kts
01-Dec-22 06:50 41.129776 -74.138648 6 10998ft 291kts
01-Dec-22 06:51 41.174457 -74.058895 72 10999ft 291kts
01-Dec-22 06:52 41.197771 -73.956096 73 10998ft 291kts
01-Dec-22 06:53 41.220559 -73.852696 74 10998ft 291kts
01-Dec-22 06:54 41.243245 -73.749382 73 10999ft 292kts
01-Dec-22 06:55 41.265820 -73.646094 73 10999ft 291kts
01-Dec-22 06:56 41.301492 -73.552365 44 11003ft 288kts
01-Dec-22 06:57 41.358299 -73.476778 45 10999ft 292kts
01-Dec-22 06:58 41.415734 -73.400013 45 10998ft 292kts
01-Dec-22 06:59 41.472896 -73.323399 45 10998ft 292kts
01-Dec-22 07:00 41.530004 -73.247033 45 10998ft 292kts
01-Dec-22 07:01 41.587437 -73.170788 45 10998ft 292kts
01-Dec-22 07:02 41.644812 -73.094112 45 10999ft 292kts
01-Dec-22 07:03 41.632142 -73.009737 167 12020ft 302kts
01-Dec-22 07:04 41.558550 -72.962961 141 11997ft 296kts
01-Dec-22 07:05 41.495027 -72.893170 140 11998ft 296kts
01-Dec-22 07:06 41.431803 -72.822991 140 11998ft 295kts
01-Dec-22 07:07 41.369016 -72.753436 140 11998ft 295kts
01-Dec-22 07:08 41.303240 -72.693655 136 11986ft 271kts
01-Dec-22 07:09 41.234995 -72.653988 166 11998ft 276kts
01-Dec-22 07:10 41.164130 -72.658286 236 12011ft 274kts
01-Dec-22 07:11 41.183500 -72.748691 269 11604ft 277kts
01-Dec-22 07:12 41.139886 -72.827286 226 10932ft 261kts
01-Dec-22 07:13 41.088432 -72.898324 226 9444ft 269kts
01-Dec-22 07:14 41.036506 -72.969745 226 7936ft 268kts
01-Dec-22 07:15 40.984968 -73.040455 226 6433ft 267kts
01-Dec-22 07:16 40.933900 -73.110337 226 5998ft 261kts
01-Dec-22 07:17 40.883517 -73.179328 226 5999ft 261kts
01-Dec-22 07:18 40.832996 -73.247880 226 5999ft 261kts
01-Dec-22 07:19 40.790548 -73.322590 261 6012ft 260kts
01-Dec-22 07:20 40.781114 -73.417051 263 5404ft 252kts
01-Dec-22 07:21 40.772640 -73.505829 263 4123ft 236kts
01-Dec-22 07:22 40.764521 -73.590229 263 2909ft 227kts
01-Dec-22 07:23 40.741413 -73.651374 220 2479ft 200kts
01-Dec-22 07:24 40.695639 -73.702264 219 1366ft 202kts
01-Dec-22 07:25 40.660003 -73.743223 211 426ft 120kts
01-Dec-22 07:26 40.635499 -73.762528 208 11ft 57kts
01-Dec-22 07:27 40.632382 -73.766493 259 9ft 0kts
01-Dec-22 07:28 40.633624 -73.769760 300 8ft 31kts
01-Dec-22 07:29 40.636109 -73.775397 299 11ft 5kts
01-Dec-22 07:30 40.636236 -73.775666 304 11ft 0kts
01-Dec-22 07:31 40.634155 -73.777795 212 8ft 16kts
01-Dec-22 07:32 40.634747 -73.783844 301 8ft 21kts
01-Dec-22 07:33 40.638206 -73.791468 299 8ft 27kts
01-Dec-22 07:34 40.642496 -73.799978 310 10ft 19kts
01-Dec-22 07:35 40.646624 -73.809008 305 11ft 31kts
01-Dec-22 07:36 40.649673 -73.811989 61 11ft 18kts
01-Dec-22 07:37 40.649022 -73.810314 351 11ft 0kts
01-Dec-22 07:38 40.649022 -73.810314 351 11ft 0kts
01-Dec-22 07:39 40.649022 -73.810314 351 11ft 0kts
01-Dec-22 07:40 40.649022 -73.810314 351 11ft 0kts
01-Dec-22 07:41 40.649022 -73.810314 351 11ft 0kts

Navigation Log

Ident Type
Flight plan parsing failed, navigation log unavailable